sensor_id;sensor_type;location;lat;lon;timestamp;pressure;altitude;pressure_sealevel;temperature;humidity
70833;BME280;58452;59.418;17.962;2023-05-03T00:01:20;101618.63;;;6.63;59.97
70833;BME280;58452;59.418;17.962;2023-05-03T00:03:45;101621.47;;;6.58;60.39
70833;BME280;58452;59.418;17.962;2023-05-03T00:06:14;101616.16;;;6.47;60.61
70833;BME280;58452;59.418;17.962;2023-05-03T00:08:40;101609.13;;;6.36;60.63
70833;BME280;58452;59.418;17.962;2023-05-03T00:11:07;101622.59;;;6.40;61.15
70833;BME280;58452;59.418;17.962;2023-05-03T00:13:32;101622.22;;;6.32;61.09
70833;BME280;58452;59.418;17.962;2023-05-03T00:15:58;101631.94;;;6.27;61.37
70833;BME280;58452;59.418;17.962;2023-05-03T00:18:23;101628.63;;;6.25;61.14
70833;BME280;58452;59.418;17.962;2023-05-03T00:20:49;101625.81;;;6.15;61.88
70833;BME280;58452;59.418;17.962;2023-05-03T00:23:15;101633.69;;;6.12;61.49
70833;BME280;58452;59.418;17.962;2023-05-03T00:25:41;101632.09;;;6.10;61.89
70833;BME280;58452;59.418;17.962;2023-05-03T00:28:07;101635.94;;;6.03;62.26
70833;BME280;58452;59.418;17.962;2023-05-03T00:30:33;101643.78;;;5.85;62.75
70833;BME280;58452;59.418;17.962;2023-05-03T00:32:58;101631.97;;;5.83;62.43
70833;BME280;58452;59.418;17.962;2023-05-03T00:35:26;101633.72;;;5.82;62.38
70833;BME280;58452;59.418;17.962;2023-05-03T00:37:51;101627.44;;;5.72;62.88
70833;BME280;58452;59.418;17.962;2023-05-03T00:40:16;101634.22;;;5.73;63.10
70833;BME280;58452;59.418;17.962;2023-05-03T00:42:43;101649.41;;;5.76;62.60
70833;BME280;58452;59.418;17.962;2023-05-03T00:45:09;101631.28;;;5.65;62.86
70833;BME280;58452;59.418;17.962;2023-05-03T00:47:35;101651.63;;;5.68;62.84
70833;BME280;58452;59.418;17.962;2023-05-03T00:50:01;101607.63;;;5.32;63.02
70833;BME280;58452;59.418;17.962;2023-05-03T00:52:27;101657.59;;;5.53;63.97
70833;BME280;58452;59.418;17.962;2023-05-03T00:54:55;101656.13;;;5.49;63.74
70833;BME280;58452;59.418;17.962;2023-05-03T00:57:21;101654.66;;;5.45;63.77
70833;BME280;58452;59.418;17.962;2023-05-03T00:59:47;101663.22;;;5.44;63.97
70833;BME280;58452;59.418;17.962;2023-05-03T01:02:12;101658.28;;;5.41;63.57
70833;BME280;58452;59.418;17.962;2023-05-03T01:04:38;101666.31;;;5.35;63.95
70833;BME280;58452;59.418;17.962;2023-05-03T01:12:39;101672.81;;;5.25;64.82
70833;BME280;58452;59.418;17.962;2023-05-03T01:15:24;101665.44;;;5.20;64.97
70833;BME280;58452;59.418;17.962;2023-05-03T01:17:58;101673.00;;;5.22;64.70
70833;BME280;58452;59.418;17.962;2023-05-03T01:20:29;101670.03;;;5.14;65.35
70833;BME280;58452;59.418;17.962;2023-05-03T01:25:24;101663.94;;;5.01;65.08
70833;BME280;58452;59.418;17.962;2023-05-03T01:27:51;101678.16;;;5.06;65.41
70833;BME280;58452;59.418;17.962;2023-05-03T01:30:16;101681.44;;;5.08;65.39
70833;BME280;58452;59.418;17.962;2023-05-03T01:38:18;101684.59;;;4.98;65.68
70833;BME280;58452;59.418;17.962;2023-05-03T01:40:51;101680.47;;;4.95;66.39
70833;BME280;58452;59.418;17.962;2023-05-03T01:43:17;101682.91;;;4.97;65.78
70833;BME280;58452;59.418;17.962;2023-05-03T01:45:44;101694.66;;;5.01;67.04
70833;BME280;58452;59.418;17.962;2023-05-03T01:48:15;101694.72;;;4.99;66.88
70833;BME280;58452;59.418;17.962;2023-05-03T01:50:41;101686.25;;;4.99;66.26
70833;BME280;58452;59.418;17.962;2023-05-03T01:53:06;101689.28;;;4.89;66.62
70833;BME280;58452;59.418;17.962;2023-05-03T01:55:32;101694.97;;;4.95;66.68
70833;BME280;58452;59.418;17.962;2023-05-03T01:57:57;101686.00;;;4.87;66.74
70833;BME280;58452;59.418;17.962;2023-05-03T02:00:23;101681.78;;;4.86;66.74
70833;BME280;58452;59.418;17.962;2023-05-03T02:02:48;101695.16;;;4.91;66.15
70833;BME280;58452;59.418;17.962;2023-05-03T02:05:14;101688.69;;;4.84;66.73
70833;BME280;58452;59.418;17.962;2023-05-03T02:07:39;101683.00;;;4.79;66.49
70833;BME280;58452;59.418;17.962;2023-05-03T02:10:05;101694.97;;;4.79;66.64
70833;BME280;58452;59.418;17.962;2023-05-03T02:12:34;101685.56;;;4.79;67.18
70833;BME280;58452;59.418;17.962;2023-05-03T02:15:02;101690.69;;;4.79;67.75
70833;BME280;58452;59.418;17.962;2023-05-03T02:17:27;101702.56;;;4.80;67.39
70833;BME280;58452;59.418;17.962;2023-05-03T02:19:53;101688.84;;;4.81;67.56
70833;BME280;58452;59.418;17.962;2023-05-03T02:22:18;101694.13;;;4.78;67.42
70833;BME280;58452;59.418;17.962;2023-05-03T02:24:43;101693.31;;;4.78;66.59
70833;BME280;58452;59.418;17.962;2023-05-03T02:27:09;101688.69;;;4.69;66.71
70833;BME280;58452;59.418;17.962;2023-05-03T02:29:35;101697.91;;;4.71;66.50
70833;BME280;58452;59.418;17.962;2023-05-03T02:32:00;101686.38;;;4.64;67.33
70833;BME280;58452;59.418;17.962;2023-05-03T02:34:26;101692.31;;;4.65;67.19
70833;BME280;58452;59.418;17.962;2023-05-03T02:36:52;101700.72;;;4.67;67.49
70833;BME280;58452;59.418;17.962;2023-05-03T02:39:17;101702.03;;;4.58;67.23
70833;BME280;58452;59.418;17.962;2023-05-03T02:41:43;101698.22;;;4.50;67.69
70833;BME280;58452;59.418;17.962;2023-05-03T02:44:08;101692.28;;;4.49;68.20
70833;BME280;58452;59.418;17.962;2023-05-03T02:46:34;101707.44;;;4.52;68.34
70833;BME280;58452;59.418;17.962;2023-05-03T02:48:59;101702.66;;;4.46;68.25
70833;BME280;58452;59.418;17.962;2023-05-03T02:51:25;101701.16;;;4.42;68.07
70833;BME280;58452;59.418;17.962;2023-05-03T02:53:51;101712.06;;;4.46;68.57
70833;BME280;58452;59.418;17.962;2023-05-03T02:56:16;101714.69;;;4.44;68.33
70833;BME280;58452;59.418;17.962;2023-05-03T02:58:42;101715.91;;;4.37;68.22
70833;BME280;58452;59.418;17.962;2023-05-03T03:01:07;101715.47;;;4.29;69.04
70833;BME280;58452;59.418;17.962;2023-05-03T03:03:33;101725.84;;;4.26;68.96
70833;BME280;58452;59.418;17.962;2023-05-03T03:05:58;101723.31;;;4.09;69.87
70833;BME280;58452;59.418;17.962;2023-05-03T03:08:24;101721.94;;;4.02;70.47
70833;BME280;58452;59.418;17.962;2023-05-03T03:10:49;101714.09;;;3.53;71.91
70833;BME280;58452;59.418;17.962;2023-05-03T03:13:15;101718.56;;;3.31;73.19
70833;BME280;58452;59.418;17.962;2023-05-03T03:15:40;101730.56;;;3.29;74.57
70833;BME280;58452;59.418;17.962;2023-05-03T03:18:06;101722.75;;;3.32;74.82
70833;BME280;58452;59.418;17.962;2023-05-03T03:20:31;101728.19;;;3.43;74.15
70833;BME280;58452;59.418;17.962;2023-05-03T03:22:57;101717.84;;;3.46;74.46
70833;BME280;58452;59.418;17.962;2023-05-03T03:25:22;101735.66;;;3.48;74.38
70833;BME280;58452;59.418;17.962;2023-05-03T03:27:48;101731.56;;;3.43;74.11
70833;BME280;58452;59.418;17.962;2023-05-03T03:30:13;101737.56;;;3.42;74.64
70833;BME280;58452;59.418;17.962;2023-05-03T03:32:39;101730.13;;;3.38;73.60
70833;BME280;58452;59.418;17.962;2023-05-03T03:35:05;101732.41;;;3.44;74.02
70833;BME280;58452;59.418;17.962;2023-05-03T03:37:31;101735.13;;;3.41;73.71
70833;BME280;58452;59.418;17.962;2023-05-03T03:39:56;101737.00;;;3.55;73.84
70833;BME280;58452;59.418;17.962;2023-05-03T03:42:22;101740.84;;;3.63;72.83
70833;BME280;58452;59.418;17.962;2023-05-03T03:44:50;101741.66;;;3.64;72.63
70833;BME280;58452;59.418;17.962;2023-05-03T03:47:15;101735.59;;;3.66;72.11
70833;BME280;58452;59.418;17.962;2023-05-03T03:49:40;101739.53;;;3.73;71.59
70833;BME280;58452;59.418;17.962;2023-05-03T03:52:06;101744.63;;;3.73;71.81
70833;BME280;58452;59.418;17.962;2023-05-03T03:54:32;101748.69;;;3.77;70.98
70833;BME280;58452;59.418;17.962;2023-05-03T03:56:58;101749.22;;;3.84;70.75
70833;BME280;58452;59.418;17.962;2023-05-03T03:59:24;101749.75;;;3.90;69.70
70833;BME280;58452;59.418;17.962;2023-05-03T04:01:50;101744.78;;;3.87;69.42
70833;BME280;58452;59.418;17.962;2023-05-03T04:04:15;101750.41;;;3.94;68.34
70833;BME280;58452;59.418;17.962;2023-05-03T04:06:41;101755.16;;;4.02;68.96
70833;BME280;58452;59.418;17.962;2023-05-03T04:09:07;101759.38;;;4.03;68.16
70833;BME280;58452;59.418;17.962;2023-05-03T04:11:33;101759.22;;;4.06;67.36
70833;BME280;58452;59.418;17.962;2023-05-03T04:13:59;101760.03;;;4.06;66.95
70833;BME280;58452;59.418;17.962;2023-05-03T04:16:25;101763.28;;;4.10;66.15
70833;BME280;58452;59.418;17.962;2023-05-03T04:18:50;101763.84;;;4.15;67.23
70833;BME280;58452;59.418;17.962;2023-05-03T04:21:16;101763.78;;;4.16;66.01
70833;BME280;58452;59.418;17.962;2023-05-03T04:23:41;101778.50;;;4.11;66.34
70833;BME280;58452;59.418;17.962;2023-05-03T04:26:07;101773.66;;;4.07;65.64
70833;BME280;58452;59.418;17.962;2023-05-03T04:28:34;101784.38;;;4.13;65.71
70833;BME280;58452;59.418;17.962;2023-05-03T04:30:59;101780.69;;;4.19;64.79
70833;BME280;58452;59.418;17.962;2023-05-03T04:33:25;101777.91;;;4.23;64.81
70833;BME280;58452;59.418;17.962;2023-05-03T04:35:52;101791.34;;;4.44;65.17
70833;BME280;58452;59.418;17.962;2023-05-03T04:38:18;101792.28;;;4.43;64.34
70833;BME280;58452;59.418;17.962;2023-05-03T04:40:44;101796.63;;;4.41;64.33
70833;BME280;58452;59.418;17.962;2023-05-03T04:43:10;101795.28;;;4.34;64.06
70833;BME280;58452;59.418;17.962;2023-05-03T04:45:36;101798.72;;;4.33;63.75
70833;BME280;58452;59.418;17.962;2023-05-03T04:48:01;101798.28;;;4.42;64.11
70833;BME280;58452;59.418;17.962;2023-05-03T04:50:29;101796.03;;;4.53;63.79
70833;BME280;58452;59.418;17.962;2023-05-03T04:52:55;101807.91;;;4.54;63.47
70833;BME280;58452;59.418;17.962;2023-05-03T04:55:20;101798.03;;;4.64;62.47
70833;BME280;58452;59.418;17.962;2023-05-03T04:57:46;101798.03;;;4.64;62.25
70833;BME280;58452;59.418;17.962;2023-05-03T05:00:12;101813.16;;;4.68;62.99
70833;BME280;58452;59.418;17.962;2023-05-03T05:02:38;101815.72;;;4.68;62.46
70833;BME280;58452;59.418;17.962;2023-05-03T05:05:04;101803.59;;;4.72;62.38
70833;BME280;58452;59.418;17.962;2023-05-03T05:07:29;101819.91;;;4.69;62.38
70833;BME280;58452;59.418;17.962;2023-05-03T05:09:55;101824.09;;;4.70;62.07
70833;BME280;58452;59.418;17.962;2023-05-03T05:12:20;101819.91;;;4.69;63.08
70833;BME280;58452;59.418;17.962;2023-05-03T05:14:46;101826.94;;;4.81;62.90
70833;BME280;58452;59.418;17.962;2023-05-03T05:17:11;101837.97;;;4.99;62.46
70833;BME280;58452;59.418;17.962;2023-05-03T05:19:37;101837.91;;;5.01;62.04
70833;BME280;58452;59.418;17.962;2023-05-03T05:22:02;101834.88;;;5.10;61.73
70833;BME280;58452;59.418;17.962;2023-05-03T05:24:28;101839.50;;;5.19;61.27
70833;BME280;58452;59.418;17.962;2023-05-03T05:26:53;101840.94;;;5.40;61.27
70833;BME280;58452;59.418;17.962;2023-05-03T05:29:19;101841.13;;;5.53;60.82
70833;BME280;58452;59.418;17.962;2023-05-03T05:31:44;101830.38;;;5.46;60.80
70833;BME280;58452;59.418;17.962;2023-05-03T05:34:10;101826.25;;;5.59;60.31
70833;BME280;58452;59.418;17.962;2023-05-03T05:36:35;101823.50;;;5.62;59.91
70833;BME280;58452;59.418;17.962;2023-05-03T05:39:01;101846.31;;;5.51;59.43
70833;BME280;58452;59.418;17.962;2023-05-03T05:41:27;101833.50;;;5.67;59.85
70833;BME280;58452;59.418;17.962;2023-05-03T05:43:59;101835.09;;;5.54;59.04
70833;BME280;58452;59.418;17.962;2023-05-03T05:46:28;101824.84;;;5.54;58.62
70833;BME280;58452;59.418;17.962;2023-05-03T05:48:57;101831.69;;;5.84;58.42
70833;BME280;58452;59.418;17.962;2023-05-03T05:51:24;101815.09;;;5.92;58.48
70833;BME280;58452;59.418;17.962;2023-05-03T05:53:55;101858.53;;;6.38;57.64
70833;BME280;58452;59.418;17.962;2023-05-03T05:56:24;101799.63;;;6.09;56.89
70833;BME280;58452;59.418;17.962;2023-05-03T05:58:51;101796.97;;;5.95;57.34
70833;BME280;58452;59.418;17.962;2023-05-03T06:01:17;101857.59;;;6.25;56.86
70833;BME280;58452;59.418;17.962;2023-05-03T06:03:44;101858.59;;;6.23;57.39
70833;BME280;58452;59.418;17.962;2023-05-03T06:06:11;101802.00;;;6.12;57.42
70833;BME280;58452;59.418;17.962;2023-05-03T06:08:38;101800.41;;;6.09;55.63
70833;BME280;58452;59.418;17.962;2023-05-03T06:11:03;101823.66;;;6.36;56.67
70833;BME280;58452;59.418;17.962;2023-05-03T06:13:29;101846.28;;;6.73;55.72
70833;BME280;58452;59.418;17.962;2023-05-03T06:15:56;101848.06;;;6.57;56.44
70833;BME280;58452;59.418;17.962;2023-05-03T06:18:21;101869.06;;;6.64;56.11
70833;BME280;58452;59.418;17.962;2023-05-03T06:20:50;101873.00;;;6.55;55.34
70833;BME280;58452;59.418;17.962;2023-05-03T06:23:15;101869.72;;;6.67;55.47
70833;BME280;58452;59.418;17.962;2023-05-03T06:25:41;101873.19;;;6.66;54.77
70833;BME280;58452;59.418;17.962;2023-05-03T06:28:09;101870.09;;;6.75;55.82
70833;BME280;58452;59.418;17.962;2023-05-03T06:30:34;101874.31;;;6.76;54.06
70833;BME280;58452;59.418;17.962;2023-05-03T06:33:00;101877.47;;;6.96;54.45
70833;BME280;58452;59.418;17.962;2023-05-03T06:35:25;101869.84;;;7.08;53.83
70833;BME280;58452;59.418;17.962;2023-05-03T06:37:51;101887.28;;;7.03;53.69
70833;BME280;58452;59.418;17.962;2023-05-03T06:40:16;101879.50;;;7.19;53.20
70833;BME280;58452;59.418;17.962;2023-05-03T06:42:43;101891.13;;;7.24;53.27
70833;BME280;58452;59.418;17.962;2023-05-03T06:45:08;101885.91;;;7.26;54.35
70833;BME280;58452;59.418;17.962;2023-05-03T06:47:34;101888.63;;;7.51;53.41
70833;BME280;58452;59.418;17.962;2023-05-03T06:50:01;101893.06;;;7.07;53.09
70833;BME280;58452;59.418;17.962;2023-05-03T06:52:26;101899.34;;;7.01;53.33
70833;BME280;58452;59.418;17.962;2023-05-03T06:54:52;101904.84;;;6.95;53.69
70833;BME280;58452;59.418;17.962;2023-05-03T06:57:17;101900.19;;;7.16;52.46
70833;BME280;58452;59.418;17.962;2023-05-03T06:59:43;101900.03;;;7.33;52.38
70833;BME280;58452;59.418;17.962;2023-05-03T07:02:08;101907.97;;;7.57;53.17
70833;BME280;58452;59.418;17.962;2023-05-03T07:04:34;101920.38;;;7.50;51.46
70833;BME280;58452;59.418;17.962;2023-05-03T07:07:00;101923.78;;;7.51;51.23
70833;BME280;58452;59.418;17.962;2023-05-03T07:09:26;101926.78;;;7.57;51.43
70833;BME280;58452;59.418;17.962;2023-05-03T07:11:51;101928.63;;;7.69;51.50
70833;BME280;58452;59.418;17.962;2023-05-03T07:14:17;101911.72;;;7.79;50.48
70833;BME280;58452;59.418;17.962;2023-05-03T07:16:42;101920.00;;;7.70;51.47
70833;BME280;58452;59.418;17.962;2023-05-03T07:19:07;101931.03;;;7.58;53.17
70833;BME280;58452;59.418;17.962;2023-05-03T07:21:33;101923.28;;;7.72;51.53
70833;BME280;58452;59.418;17.962;2023-05-03T07:24:01;101920.66;;;8.01;51.08
70833;BME280;58452;59.418;17.962;2023-05-03T07:26:27;101917.88;;;8.04;50.59
70833;BME280;58452;59.418;17.962;2023-05-03T07:28:52;101919.84;;;8.27;50.19
70833;BME280;58452;59.418;17.962;2023-05-03T07:31:20;101912.22;;;8.40;49.46
70833;BME280;58452;59.418;17.962;2023-05-03T07:33:46;101916.34;;;8.28;49.90
70833;BME280;58452;59.418;17.962;2023-05-03T07:36:11;101922.78;;;8.35;49.29
70833;BME280;58452;59.418;17.962;2023-05-03T07:38:37;101928.56;;;8.24;50.68
70833;BME280;58452;59.418;17.962;2023-05-03T07:41:02;101928.34;;;8.42;48.54
70833;BME280;58452;59.418;17.962;2023-05-03T07:43:29;101933.22;;;8.46;50.44
70833;BME280;58452;59.418;17.962;2023-05-03T07:45:54;101932.47;;;8.44;47.60
70833;BME280;58452;59.418;17.962;2023-05-03T07:48:20;101931.34;;;8.21;47.48
70833;BME280;58452;59.418;17.962;2023-05-03T07:50:45;101942.63;;;7.92;47.88
70833;BME280;58452;59.418;17.962;2023-05-03T07:53:11;101946.28;;;8.02;48.73
70833;BME280;58452;59.418;17.962;2023-05-03T07:55:37;101948.38;;;8.10;49.13
70833;BME280;58452;59.418;17.962;2023-05-03T07:58:03;101955.84;;;8.27;48.54
70833;BME280;58452;59.418;17.962;2023-05-03T08:00:29;101957.28;;;8.45;49.26
70833;BME280;58452;59.418;17.962;2023-05-03T08:02:55;101956.38;;;8.46;47.96
70833;BME280;58452;59.418;17.962;2023-05-03T08:05:21;101957.47;;;8.42;47.79
70833;BME280;58452;59.418;17.962;2023-05-03T08:07:48;101961.03;;;8.66;49.48
70833;BME280;58452;59.418;17.962;2023-05-03T08:10:13;101955.31;;;8.88;46.11
70833;BME280;58452;59.418;17.962;2023-05-03T08:12:39;101949.25;;;8.89;46.43
70833;BME280;58452;59.418;17.962;2023-05-03T08:15:05;101964.84;;;9.13;46.91
70833;BME280;58452;59.418;17.962;2023-05-03T08:17:32;101960.41;;;9.15;46.00
70833;BME280;58452;59.418;17.962;2023-05-03T08:20:04;101963.19;;;9.37;46.42
70833;BME280;58452;59.418;17.962;2023-05-03T08:22:30;101975.44;;;9.59;46.00
70833;BME280;58452;59.418;17.962;2023-05-03T08:24:55;101967.91;;;9.68;44.51
70833;BME280;58452;59.418;17.962;2023-05-03T08:27:21;101958.31;;;9.70;47.53
70833;BME280;58452;59.418;17.962;2023-05-03T08:29:47;101961.25;;;9.90;45.80
70833;BME280;58452;59.418;17.962;2023-05-03T08:32:12;101972.34;;;9.66;45.71
70833;BME280;58452;59.418;17.962;2023-05-03T08:34:38;101982.28;;;9.83;45.41
70833;BME280;58452;59.418;17.962;2023-05-03T08:37:03;101964.16;;;9.72;46.34
70833;BME280;58452;59.418;17.962;2023-05-03T08:39:29;101983.72;;;9.88;47.02
70833;BME280;58452;59.418;17.962;2023-05-03T08:41:56;101972.41;;;9.77;45.72
70833;BME280;58452;59.418;17.962;2023-05-03T08:44:23;101992.13;;;9.78;45.56
70833;BME280;58452;59.418;17.962;2023-05-03T08:46:52;101987.63;;;9.57;46.33
70833;BME280;58452;59.418;17.962;2023-05-03T08:49:17;101992.81;;;9.80;43.86
70833;BME280;58452;59.418;17.962;2023-05-03T08:51:44;101982.78;;;10.01;44.53
70833;BME280;58452;59.418;17.962;2023-05-03T08:54:14;101991.47;;;9.88;43.69
70833;BME280;58452;59.418;17.962;2023-05-03T08:56:42;101999.13;;;9.89;46.49
70833;BME280;58452;59.418;17.962;2023-05-03T08:59:09;101990.81;;;10.22;45.41
70833;BME280;58452;59.418;17.962;2023-05-03T09:01:39;101999.69;;;10.18;44.57
70833;BME280;58452;59.418;17.962;2023-05-03T09:04:06;102000.34;;;9.96;43.69
70833;BME280;58452;59.418;17.962;2023-05-03T09:06:32;101989.47;;;10.04;43.61
70833;BME280;58452;59.418;17.962;2023-05-03T09:08:59;101998.16;;;10.03;43.36
70833;BME280;58452;59.418;17.962;2023-05-03T09:11:29;102001.69;;;10.38;44.92
70833;BME280;58452;59.418;17.962;2023-05-03T09:14:15;102010.03;;;10.65;41.56
70833;BME280;58452;59.418;17.962;2023-05-03T09:16:42;102004.47;;;10.35;43.25
70833;BME280;58452;59.418;17.962;2023-05-03T09:19:12;102000.38;;;10.56;43.93
70833;BME280;58452;59.418;17.962;2023-05-03T09:21:38;102002.56;;;10.73;42.11
70833;BME280;58452;59.418;17.962;2023-05-03T09:24:18;102021.56;;;10.72;44.01
70833;BME280;58452;59.418;17.962;2023-05-03T09:26:45;102012.66;;;10.29;41.74
70833;BME280;58452;59.418;17.962;2023-05-03T09:29:29;102023.28;;;9.75;42.36
70833;BME280;58452;59.418;17.962;2023-05-03T09:32:00;102006.94;;;9.88;42.00
70833;BME280;58452;59.418;17.962;2023-05-03T09:34:26;102018.91;;;10.01;41.08
70833;BME280;58452;59.418;17.962;2023-05-03T09:36:52;102020.94;;;10.09;42.04
70833;BME280;58452;59.418;17.962;2023-05-03T09:39:18;102024.88;;;10.14;40.23
70833;BME280;58452;59.418;17.962;2023-05-03T09:41:44;102022.94;;;10.42;42.83
70833;BME280;58452;59.418;17.962;2023-05-03T09:44:10;102022.94;;;10.65;40.20
70833;BME280;58452;59.418;17.962;2023-05-03T09:46:37;102029.75;;;10.66;38.89
70833;BME280;58452;59.418;17.962;2023-05-03T09:49:03;102027.09;;;10.79;39.51
70833;BME280;58452;59.418;17.962;2023-05-03T09:51:30;102024.34;;;10.93;37.57
70833;BME280;58452;59.418;17.962;2023-05-03T09:53:57;102022.84;;;11.02;37.08
70833;BME280;58452;59.418;17.962;2023-05-03T09:56:24;102027.56;;;11.08;37.15
70833;BME280;58452;59.418;17.962;2023-05-03T09:58:51;102031.06;;;11.07;36.42
70833;BME280;58452;59.418;17.962;2023-05-03T10:01:18;102034.28;;;10.87;35.81
70833;BME280;58452;59.418;17.962;2023-05-03T10:03:48;102038.69;;;10.73;37.74
70833;BME280;58452;59.418;17.962;2023-05-03T10:06:34;102035.69;;;10.56;37.29
70833;BME280;58452;59.418;17.962;2023-05-03T10:09:41;102035.91;;;10.53;38.23
70833;BME280;58452;59.418;17.962;2023-05-03T10:12:08;102028.72;;;10.45;36.82
70833;BME280;58452;59.418;17.962;2023-05-03T10:14:36;102030.22;;;10.71;38.59
70833;BME280;58452;59.418;17.962;2023-05-03T10:17:05;102026.66;;;10.85;36.19
70833;BME280;58452;59.418;17.962;2023-05-03T10:22:04;102033.44;;;11.10;36.89
70833;BME280;58452;59.418;17.962;2023-05-03T10:24:31;102023.06;;;10.99;40.01
70833;BME280;58452;59.418;17.962;2023-05-03T10:26:57;102031.94;;;11.18;40.06
70833;BME280;58452;59.418;17.962;2023-05-03T10:32:02;102039.19;;;11.13;39.55
70833;BME280;58452;59.418;17.962;2023-05-03T10:34:35;102041.56;;;11.27;38.75
70833;BME280;58452;59.418;17.962;2023-05-03T10:37:09;102047.63;;;11.50;40.21
70833;BME280;58452;59.418;17.962;2023-05-03T10:39:35;102038.59;;;11.78;38.54
70833;BME280;58452;59.418;17.962;2023-05-03T10:42:05;102035.66;;;12.05;38.03
70833;BME280;58452;59.418;17.962;2023-05-03T10:47:17;102048.59;;;12.16;36.69
70833;BME280;58452;59.418;17.962;2023-05-03T10:49:44;102041.06;;;12.13;36.92
70833;BME280;58452;59.418;17.962;2023-05-03T10:55:16;102049.78;;;12.12;36.28
70833;BME280;58452;59.418;17.962;2023-05-03T10:57:43;102040.22;;;11.57;37.64
70833;BME280;58452;59.418;17.962;2023-05-03T11:05:46;102055.84;;;11.44;36.51
70833;BME280;58452;59.418;17.962;2023-05-03T11:08:13;102052.53;;;11.42;36.29
70833;BME280;58452;59.418;17.962;2023-05-03T11:10:39;102063.84;;;11.63;39.01
70833;BME280;58452;59.418;17.962;2023-05-03T11:13:06;102052.13;;;11.93;38.11
70833;BME280;58452;59.418;17.962;2023-05-03T11:15:32;102058.28;;;12.03;34.60
70833;BME280;58452;59.418;17.962;2023-05-03T11:17:58;102057.78;;;11.87;36.21
70833;BME280;58452;59.418;17.962;2023-05-03T11:20:24;102059.06;;;11.24;34.89
70833;BME280;58452;59.418;17.962;2023-05-03T11:22:50;102047.09;;;11.23;35.44
70833;BME280;58452;59.418;17.962;2023-05-03T11:25:15;102064.75;;;11.40;36.67
70833;BME280;58452;59.418;17.962;2023-05-03T11:27:41;102070.41;;;11.45;36.92
70833;BME280;58452;59.418;17.962;2023-05-03T11:30:07;102072.47;;;10.94;37.15
70833;BME280;58452;59.418;17.962;2023-05-03T11:32:34;102062.13;;;10.94;36.94
70833;BME280;58452;59.418;17.962;2023-05-03T11:35:01;102076.59;;;10.73;37.22
70833;BME280;58452;59.418;17.962;2023-05-03T11:37:30;102071.44;;;10.73;37.91
70833;BME280;58452;59.418;17.962;2023-05-03T11:39:56;102072.66;;;10.80;36.53
70833;BME280;58452;59.418;17.962;2023-05-03T11:42:22;102074.97;;;10.96;37.02
70833;BME280;58452;59.418;17.962;2023-05-03T11:44:53;102077.31;;;10.75;36.86
70833;BME280;58452;59.418;17.962;2023-05-03T11:47:19;102077.91;;;10.18;38.02
70833;BME280;58452;59.418;17.962;2023-05-03T11:49:52;102074.06;;;10.60;39.25
70833;BME280;58452;59.418;17.962;2023-05-03T11:52:25;102075.69;;;11.09;34.23
70833;BME280;58452;59.418;17.962;2023-05-03T11:54:51;102058.25;;;11.23;34.51
70833;BME280;58452;59.418;17.962;2023-05-03T11:57:17;102062.91;;;11.64;35.89
70833;BME280;58452;59.418;17.962;2023-05-03T11:59:43;102056.13;;;12.08;34.55
70833;BME280;58452;59.418;17.962;2023-05-03T12:02:11;102062.72;;;12.12;34.30
70833;BME280;58452;59.418;17.962;2023-05-03T12:04:39;102056.53;;;12.57;35.92
70833;BME280;58452;59.418;17.962;2023-05-03T12:07:10;102068.97;;;12.63;33.19
70833;BME280;58452;59.418;17.962;2023-05-03T12:09:38;102063.41;;;12.79;35.77
70833;BME280;58452;59.418;17.962;2023-05-03T12:12:04;102066.00;;;13.11;34.68
70833;BME280;58452;59.418;17.962;2023-05-03T12:14:55;102066.38;;;13.48;34.02
70833;BME280;58452;59.418;17.962;2023-05-03T12:17:38;102048.22;;;13.48;31.48
70833;BME280;58452;59.418;17.962;2023-05-03T12:20:16;102071.84;;;13.24;30.92
70833;BME280;58452;59.418;17.962;2023-05-03T12:22:46;102063.34;;;13.43;31.95
70833;BME280;58452;59.418;17.962;2023-05-03T12:25:12;102072.53;;;13.26;32.24
70833;BME280;58452;59.418;17.962;2023-05-03T12:27:37;102066.38;;;13.48;32.61
70833;BME280;58452;59.418;17.962;2023-05-03T12:30:03;102068.44;;;13.75;33.59
70833;BME280;58452;59.418;17.962;2023-05-03T12:32:29;102083.13;;;13.64;32.77
70833;BME280;58452;59.418;17.962;2023-05-03T12:34:55;102086.75;;;13.00;33.24
70833;BME280;58452;59.418;17.962;2023-05-03T12:37:20;102089.38;;;12.89;32.93
70833;BME280;58452;59.418;17.962;2023-05-03T12:39:46;102110.47;;;11.97;33.95
70833;BME280;58452;59.418;17.962;2023-05-03T12:42:11;102100.59;;;11.80;35.08
70833;BME280;58452;59.418;17.962;2023-05-03T12:44:38;102113.44;;;12.03;36.97
70833;BME280;58452;59.418;17.962;2023-05-03T12:47:04;102107.41;;;12.36;38.77
70833;BME280;58452;59.418;17.962;2023-05-03T12:49:29;102093.06;;;12.43;38.47
70833;BME280;58452;59.418;17.962;2023-05-03T12:51:55;102095.03;;;12.51;35.70
70833;BME280;58452;59.418;17.962;2023-05-03T12:54:24;102103.88;;;12.15;36.01
70833;BME280;58452;59.418;17.962;2023-05-03T12:56:49;102096.81;;;11.72;37.97
70833;BME280;58452;59.418;17.962;2023-05-03T12:59:15;102112.00;;;11.07;39.06
70833;BME280;58452;59.418;17.962;2023-05-03T13:01:41;102097.88;;;11.35;39.08
70833;BME280;58452;59.418;17.962;2023-05-03T13:04:06;102101.47;;;11.67;43.35
70833;BME280;58452;59.418;17.962;2023-05-03T13:06:32;102088.19;;;11.61;38.79
70833;BME280;58452;59.418;17.962;2023-05-03T13:08:58;102083.78;;;11.04;42.16
70833;BME280;58452;59.418;17.962;2023-05-03T13:11:23;102063.56;;;11.33;42.88
70833;BME280;58452;59.418;17.962;2023-05-03T13:13:51;102086.31;;;11.63;40.15
70833;BME280;58452;59.418;17.962;2023-05-03T13:16:16;102074.91;;;11.65;38.05